Senador Jose Porfirio, Brazil
Current Conditions -  °F | °C
As of 9:00 AM on Sunday 21 Dec 2014 (Local Time) from SBHT Reporting Station
Broken Clouds Broken Clouds  
Wind Chill: 81°   Ceiling: 1500
Heat Index: 87°   Visibility: 6mi
Dew Point: 77°   Wind: 6mph
Humidity: 89%   Direction: 90°E
Pressure: 29.88"   Gusts: NA
Location:  2.58°S, 51.92°W
Report Text: SBHT 211200Z 09005KT 9999 SCT012 BKN015 27/25 Q1012
Loading
Personal Weather Stations






























Interactive Weather Map New forecast layout! Learn more

10-Day Weather Forecast

Advertisements
Track Severe Weather on mobile